首页
METAR-TAF:

METAR-TAF

机场 :

班加罗尔国际机场

班加羅爾, 印度

纬度: 13-11-56N, 经度: 077-42-20E, 海拔: 915米

当前天气观测

该预报发布于22分钟前的12:30 UTC
风速6节,风向西转西北
温度 27°C
湿度 62%
气压 1010 hPa
能见度10公里或以上
散云层高于1500英尺
散云层高于2000英尺

METAR: VOBL 171230Z 30006KT 9999 SCT015 SCT020 27/19 Q1010 NOSIG

时间: 18:22 (12:52 UTC)

预报

该预报发布于1小时和52分钟前的11:00 UTC
预报有效从17日的 12点(UTC)到 18日的 18点(UTC)
风速10节,风向西转西南
能見度: 6000
散云层高于1200英尺
散云层高于8000英尺
短暂存在
从 17日的 12点(UTC)到 17日的 18点(UTC)
能見度: 3000
散云层高于1200英尺
散云层高于2000英尺
少量云层高于2500英尺, 积雨云.
多云层高于8000英尺
雨, 毛毛雨
短暂存在
从 18日的 00点(UTC)到 18日的 03点(UTC)
多云层高于800英尺
散云层高于1200英尺
多云层高于8000英尺
短暂存在
从 18日的 09点(UTC)到 18日的 15点(UTC)
能見度: 3000
散云层高于1200英尺
散云层高于2000英尺
少量云层高于2500英尺, 积雨云.
多云层高于8000英尺
雨, 毛毛雨,

TAF: VOBL 171100Z 1712/1818 25010KT 6000 SCT012 SCT080 TEMPO 1712/1718 3000 RA DZ SCT012 SCT020 FEW025CB BKN080 TEMPO 1800/1803 BKN008 SCT012 BKN080 TEMPO 1809/1815 3000 RA DZ SCT012 SCT020 FEW025CB BKN080

超过4000个机场的气象观测和天气预报(METAR&TAF报告)。

可查询的气象台以黄色和红色小点在地图上表示。

将鼠标移到小点上方,可查看气象台名称。

然后点击查看天气观测和预报。

如需切换地图:点击带黑十字的绿色按钮放大地图;点击带横线的绿色按钮缩小地图;或者点击绿色箭头查看邻近地区的地图。


METAR-TAF: